createdAt,value
2018-12-11T00:03:03.546Z,17.86
2018-12-11T00:08:58.543Z,15.72
2018-12-11T00:14:53.535Z,13.91
2018-12-11T00:20:48.535Z,16.52
2018-12-11T00:26:43.618Z,13.74
2018-12-11T00:32:38.555Z,19.46
2018-12-11T00:38:33.563Z,10.94
2018-12-11T00:44:28.569Z,13.13
2018-12-11T00:50:23.564Z,13.62
2018-12-11T00:56:18.580Z,14.73
2018-12-11T01:02:13.578Z,11.09
2018-12-11T01:08:08.601Z,11.66
2018-12-11T01:14:03.601Z,12.31
2018-12-11T01:19:58.658Z,9.99
2018-12-11T01:25:53.578Z,9.27
2018-12-11T01:31:48.619Z,10.69
2018-12-11T01:37:43.599Z,11.94
2018-12-11T01:43:38.602Z,11.97
2018-12-11T01:49:33.620Z,11.3
2018-12-11T01:55:28.629Z,11.11
2018-12-11T02:01:23.626Z,9.37
2018-12-11T02:07:18.648Z,8.98
2018-12-11T02:13:13.659Z,8.67
2018-12-11T02:19:08.612Z,8
2018-12-11T02:25:03.654Z,6.01
2018-12-11T02:30:58.658Z,10.79
2018-12-11T02:36:53.623Z,8.61
2018-12-11T02:42:48.629Z,7.25
2018-12-11T02:48:43.649Z,7.69
2018-12-11T02:54:38.631Z,10.34
2018-12-11T03:00:33.671Z,7.05
2018-12-11T03:06:28.643Z,9.12
2018-12-11T03:12:23.641Z,7.5
2018-12-11T03:18:18.681Z,6.28
2018-12-11T03:24:13.661Z,7.52
2018-12-11T03:30:08.667Z,7.1
2018-12-11T03:36:03.664Z,6.83
2018-12-11T03:41:58.655Z,5.9
2018-12-11T03:47:53.666Z,10.47
2018-12-11T03:53:48.724Z,9.56
2018-12-11T03:59:43.714Z,6.86
2018-12-11T04:05:38.691Z,7.56
2018-12-11T04:11:33.690Z,7.04
2018-12-11T04:17:28.702Z,9.11
2018-12-11T04:23:23.726Z,11.64
2018-12-11T04:29:18.693Z,12.34
2018-12-11T04:35:13.750Z,11.13
2018-12-11T04:41:08.704Z,9.12
2018-12-11T04:47:03.677Z,12.12
2018-12-11T04:52:58.810Z,10.27
2018-12-11T04:58:53.713Z,11.78
2018-12-11T05:04:48.694Z,8.87
2018-12-11T05:10:43.742Z,9.23
2018-12-11T05:16:38.696Z,8.23
2018-12-11T05:22:33.731Z,7.48
2018-12-11T05:28:28.734Z,12.51
2018-12-11T05:34:23.781Z,9.64
2018-12-11T05:40:18.727Z,8.86
2018-12-11T05:46:13.737Z,14.98
2018-12-11T05:52:08.754Z,13.03
2018-12-11T05:58:03.731Z,10.66
2018-12-11T06:03:58.739Z,10.38
2018-12-11T06:09:53.734Z,10.96
2018-12-11T06:15:48.762Z,9.25
2018-12-11T06:21:43.731Z,12.11
2018-12-11T06:27:38.738Z,12.03
2018-12-11T06:33:33.739Z,15.46
2018-12-11T06:39:28.781Z,12.6
2018-12-11T06:45:23.766Z,7.66
2018-12-11T06:51:18.747Z,10.48
2018-12-11T06:57:13.790Z,10.9
2018-12-11T07:03:08.768Z,9.6
2018-12-11T07:09:03.815Z,10.16
2018-12-11T07:14:58.780Z,10.06
2018-12-11T07:20:53.812Z,7.28
2018-12-11T07:26:48.780Z,6.48
2018-12-11T07:32:43.797Z,10.13
2018-12-11T07:38:38.782Z,9.64
2018-12-11T07:44:33.790Z,9.52
2018-12-11T07:50:28.807Z,43.08
2018-12-11T07:56:23.785Z,18.39
2018-12-11T08:02:18.816Z,19
2018-12-11T08:08:13.822Z,11.16
2018-12-11T08:14:08.801Z,16.82
2018-12-11T08:20:03.810Z,21.68
2018-12-11T08:25:58.799Z,17.3
2018-12-11T08:31:53.819Z,7.48
2018-12-11T08:37:48.831Z,5.02
2018-12-11T08:43:43.831Z,7.84
2018-12-11T08:49:38.810Z,6.4
2018-12-11T08:55:33.908Z,14.2
2018-12-11T09:01:28.838Z,9.2
2018-12-11T09:07:23.864Z,10.13
2018-12-11T09:13:18.840Z,7.53
2018-12-11T09:19:13.841Z,8.44
2018-12-11T09:25:08.888Z,20.49
2018-12-11T09:31:03.882Z,8.09
2018-12-11T09:36:58.872Z,8.97
2018-12-11T09:42:53.918Z,8.55
2018-12-11T09:48:48.863Z,11.08
2018-12-11T09:54:43.852Z,7.48
2018-12-11T10:00:38.967Z,6.26
2018-12-11T10:06:33.860Z,11.5
2018-12-11T10:12:28.920Z,12.97
2018-12-11T10:18:23.866Z,14.46
2018-12-11T10:24:18.929Z,13.9
2018-12-11T10:30:14.524Z,11.51
2018-12-11T10:36:08.895Z,14.6
2018-12-11T10:42:03.872Z,15.15
2018-12-11T10:47:58.884Z,13.62
2018-12-11T10:53:53.870Z,13.17
2018-12-11T10:59:48.889Z,15.29
2018-12-11T11:05:43.996Z,5.25
2018-12-11T11:11:38.906Z,7.34
2018-12-11T11:17:33.933Z,5.92
2018-12-11T11:23:28.898Z,8.27
2018-12-11T11:29:23.906Z,3.96
2018-12-11T11:35:18.929Z,11.41
2018-12-11T11:41:13.934Z,4.26
2018-12-11T11:47:08.912Z,35.44
2018-12-11T11:53:03.937Z,7.04
2018-12-11T11:58:58.927Z,4.03
2018-12-11T12:04:53.943Z,7.39
2018-12-11T12:10:48.942Z,4.74
2018-12-11T12:16:43.966Z,3.29
2018-12-11T12:22:38.950Z,2.63
2018-12-11T12:28:33.950Z,1.87
2018-12-11T12:34:28.951Z,3.15
2018-12-11T12:40:23.958Z,2.07
2018-12-11T12:46:18.943Z,2.47
2018-12-11T12:52:13.985Z,4.03
2018-12-11T12:58:08.970Z,2.54
2018-12-11T13:04:03.997Z,4.43
2018-12-11T13:09:58.970Z,1.35
2018-12-11T13:15:53.971Z,6.6
2018-12-11T13:21:49.011Z,2.35
2018-12-11T13:27:43.968Z,0.8
2018-12-11T13:33:39.029Z,1.42
2018-12-11T13:39:33.977Z,2.64
2018-12-11T13:45:28.987Z,4.91
2018-12-11T13:51:24.002Z,3.2
2018-12-11T13:57:18.990Z,1.19
2018-12-11T14:03:13.989Z,9.56
2018-12-11T14:09:09.013Z,7.84
2018-12-11T14:15:04.009Z,2.39
2018-12-11T14:20:59.021Z,5.75
2018-12-11T14:26:54.043Z,9.18
2018-12-11T14:32:49.004Z,6.1
2018-12-11T14:38:44.034Z,3.14
2018-12-11T14:44:39.042Z,7.49
2018-12-11T14:50:34.030Z,4.7
2018-12-11T14:56:29.032Z,10.78
2018-12-11T15:02:24.038Z,9.13
2018-12-11T15:08:19.036Z,9.52
2018-12-11T15:14:14.031Z,12.02
2018-12-11T15:20:09.048Z,13.66
2018-12-11T15:26:05.414Z,16.17
2018-12-11T15:31:59.044Z,11.33
2018-12-11T15:37:54.076Z,10.03
2018-12-11T15:43:49.076Z,20.65
2018-12-11T15:49:44.070Z,16.45
2018-12-11T15:55:39.081Z,17.37
2018-12-11T16:01:34.121Z,17.2
2018-12-11T16:07:29.113Z,12.05
2018-12-11T16:13:24.078Z,12.04
2018-12-11T16:19:19.151Z,10.91
2018-12-11T16:25:14.126Z,12.83
2018-12-11T16:31:09.086Z,25.78
2018-12-11T16:37:04.075Z,32.12
2018-12-11T16:42:59.086Z,33.78
2018-12-11T16:48:54.108Z,25.18
2018-12-11T16:54:49.094Z,33.09
2018-12-11T17:00:44.110Z,38.98
2018-12-11T17:06:39.119Z,30.18
2018-12-11T17:12:34.106Z,25.7
2018-12-11T17:18:29.119Z,31.02
2018-12-11T17:24:24.119Z,31.36
2018-12-11T17:30:19.112Z,31.49
2018-12-11T17:36:14.107Z,22.53
2018-12-11T17:42:09.206Z,38.92
2018-12-11T17:48:04.158Z,36.14
2018-12-11T17:53:59.139Z,25.87
2018-12-11T17:59:54.124Z,20.76
2018-12-11T18:05:49.148Z,20.48
2018-12-11T18:11:44.134Z,31.27
2018-12-11T18:17:39.152Z,28.46
2018-12-11T18:23:34.149Z,28.04
2018-12-11T18:29:29.158Z,44.33
2018-12-11T18:35:24.143Z,40.29
2018-12-11T18:41:19.182Z,35.16
2018-12-11T18:47:14.212Z,50.57
2018-12-11T18:53:09.185Z,44.99
2018-12-11T18:59:04.166Z,28.99
2018-12-11T19:04:59.181Z,40.12
2018-12-11T19:10:54.217Z,30.56
2018-12-11T19:16:49.192Z,31.6
2018-12-11T19:22:44.193Z,32.07
2018-12-11T19:28:39.172Z,31.62
2018-12-11T19:34:34.203Z,38.78
2018-12-11T19:40:29.191Z,21.39
2018-12-11T19:46:24.196Z,21.77
2018-12-11T19:52:19.192Z,28.97
2018-12-11T19:58:14.217Z,23.32
2018-12-11T20:04:09.208Z,22.1
2018-12-11T20:10:04.237Z,23.12
2018-12-11T20:15:59.211Z,28.12
2018-12-11T20:21:54.227Z,28.83
2018-12-11T20:27:49.255Z,23.14
2018-12-11T20:33:44.218Z,29.52
2018-12-11T20:39:39.225Z,27.73
2018-12-11T20:45:34.226Z,20.7
2018-12-11T20:51:29.232Z,22.86
2018-12-11T20:57:24.241Z,22.63
2018-12-11T21:03:19.226Z,23.54
2018-12-11T21:09:14.228Z,22.81
2018-12-11T21:15:09.230Z,27.48
2018-12-11T21:21:04.278Z,17.66
2018-12-11T21:26:59.247Z,19.57
2018-12-11T21:32:54.309Z,21.38
2018-12-11T21:38:49.276Z,22.27
2018-12-11T21:44:44.281Z,25.93
2018-12-11T21:50:39.244Z,22.62
2018-12-11T21:56:34.256Z,22.32
2018-12-11T22:02:29.304Z,22.85
2018-12-11T22:08:24.264Z,21.53
2018-12-11T22:14:19.275Z,24.72
2018-12-11T22:20:14.283Z,24.31
2018-12-11T22:26:09.278Z,29.98
2018-12-11T22:32:04.280Z,19.31
2018-12-11T22:37:59.372Z,26.83
2018-12-11T22:43:54.276Z,25.37
2018-12-11T22:49:49.297Z,29.1
2018-12-11T22:55:44.365Z,22.29
2018-12-11T23:01:39.291Z,22.32
2018-12-11T23:07:34.326Z,22.22
2018-12-11T23:13:29.322Z,24.53
2018-12-11T23:19:24.332Z,24.02
2018-12-11T23:25:19.344Z,19.64
2018-12-11T23:31:14.335Z,24.34
2018-12-11T23:37:09.335Z,26.53
2018-12-11T23:43:04.339Z,28.2
2018-12-11T23:48:59.322Z,23.36
2018-12-11T23:54:54.335Z,21.29
